sensor_id;sensor_type;location;lat;lon;timestamp;pressure;altitude;pressure_sealevel;temperature;humidity
49947;BME280;35839;48.662;13.300;2022-09-09T05:05:39;97161.50;;;10.37;100.00
49947;BME280;35839;48.662;13.300;2022-09-09T05:08:06;97165.94;;;10.36;100.00
49947;BME280;35839;48.662;13.300;2022-09-09T05:10:32;97167.06;;;10.33;100.00
49947;BME280;35839;48.662;13.300;2022-09-09T05:12:59;97173.44;;;10.31;100.00
49947;BME280;35839;48.662;13.300;2022-09-09T05:15:24;97185.88;;;10.37;100.00
49947;BME280;35839;48.662;13.300;2022-09-09T05:17:50;97193.50;;;10.48;100.00
49947;BME280;35839;48.662;13.300;2022-09-09T05:20:17;97199.91;;;10.54;100.00
49947;BME280;35839;48.662;13.300;2022-09-09T05:22:43;97194.34;;;10.49;100.00
49947;BME280;35839;48.662;13.300;2022-09-09T05:25:09;97194.63;;;10.46;100.00
49947;BME280;35839;48.662;13.300;2022-09-09T05:27:34;97198.59;;;10.50;100.00
49947;BME280;35839;48.662;13.300;2022-09-09T05:30:00;97191.16;;;10.63;100.00
49947;BME280;35839;48.662;13.300;2022-09-09T05:32:25;97203.34;;;10.54;100.00
49947;BME280;35839;48.662;13.300;2022-09-09T05:34:51;97208.91;;;10.51;100.00
49947;BME280;35839;48.662;13.300;2022-09-09T05:37:17;97209.91;;;10.32;100.00
49947;BME280;35839;48.662;13.300;2022-09-09T05:39:43;97211.47;;;10.43;100.00
49947;BME280;35839;48.662;13.300;2022-09-09T05:42:09;97209.34;;;10.73;100.00
49947;BME280;35839;48.662;13.300;2022-09-09T05:44:35;97206.88;;;10.71;100.00
49947;BME280;35839;48.662;13.300;2022-09-09T05:47:00;97219.19;;;10.79;100.00
49947;BME280;35839;48.662;13.300;2022-09-09T05:49:25;97210.06;;;10.83;100.00
49947;BME280;35839;48.662;13.300;2022-09-09T05:51:51;97207.31;;;10.93;100.00
49947;BME280;35839;48.662;13.300;2022-09-09T05:54:16;97203.88;;;10.92;100.00
49947;BME280;35839;48.662;13.300;2022-09-09T05:56:42;97207.50;;;11.00;100.00
49947;BME280;35839;48.662;13.300;2022-09-09T05:59:08;97202.94;;;11.02;100.00
49947;BME280;35839;48.662;13.300;2022-09-09T06:01:35;97200.72;;;11.15;100.00
49947;BME280;35839;48.662;13.300;2022-09-09T06:04:01;97199.09;;;11.22;100.00
49947;BME280;35839;48.662;13.300;2022-09-09T06:06:30;97196.00;;;11.35;100.00
49947;BME280;35839;48.662;13.300;2022-09-09T06:08:57;97189.00;;;11.35;100.00
49947;BME280;35839;48.662;13.300;2022-09-09T06:11:27;97187.38;;;11.43;100.00
49947;BME280;35839;48.662;13.300;2022-09-09T06:13:56;97189.38;;;11.57;100.00
49947;BME280;35839;48.662;13.300;2022-09-09T06:16:24;97188.72;;;11.55;100.00
49947;BME280;35839;48.662;13.300;2022-09-09T06:18:49;97182.81;;;11.69;100.00
49947;BME280;35839;48.662;13.300;2022-09-09T06:23:42;97185.00;;;11.82;100.00
49947;BME280;35839;48.662;13.300;2022-09-09T06:26:15;97187.47;;;11.92;100.00
49947;BME280;35839;48.662;13.300;2022-09-09T06:28:41;97191.06;;;12.07;100.00
49947;BME280;35839;48.662;13.300;2022-09-09T06:31:10;97190.75;;;12.18;100.00
49947;BME280;35839;48.662;13.300;2022-09-09T06:33:41;97195.19;;;12.34;100.00
49947;BME280;35839;48.662;13.300;2022-09-09T06:36:18;97195.16;;;12.51;100.00
49947;BME280;35839;48.662;13.300;2022-09-09T06:38:44;97193.00;;;12.62;100.00
49947;BME280;35839;48.662;13.300;2022-09-09T06:41:11;97189.69;;;12.77;100.00
49947;BME280;35839;48.662;13.300;2022-09-09T06:43:37;97190.63;;;12.92;100.00
49947;BME280;35839;48.662;13.300;2022-09-09T06:46:26;97199.75;;;13.13;100.00
49947;BME280;35839;48.662;13.300;2022-09-09T06:48:53;97195.78;;;13.17;100.00
49947;BME280;35839;48.662;13.300;2022-09-09T06:51:24;97195.47;;;13.20;100.00
49947;BME280;35839;48.662;13.300;2022-09-09T06:53:52;97197.22;;;13.36;100.00
49947;BME280;35839;48.662;13.300;2022-09-09T06:56:25;97206.81;;;13.52;100.00
49947;BME280;35839;48.662;13.300;2022-09-09T06:58:53;97204.91;;;13.45;100.00
49947;BME280;35839;48.662;13.300;2022-09-09T07:01:24;97207.47;;;13.54;100.00
49947;BME280;35839;48.662;13.300;2022-09-09T07:03:52;97202.69;;;13.57;100.00
49947;BME280;35839;48.662;13.300;2022-09-09T07:06:23;97209.56;;;13.66;100.00
49947;BME280;35839;48.662;13.300;2022-09-09T07:08:57;97218.25;;;13.67;100.00
49947;BME280;35839;48.662;13.300;2022-09-09T07:11:26;97211.66;;;13.71;100.00
49947;BME280;35839;48.662;13.300;2022-09-09T07:13:56;97215.50;;;13.60;100.00
49947;BME280;35839;48.662;13.300;2022-09-09T07:16:23;97211.00;;;13.69;100.00
49947;BME280;35839;48.662;13.300;2022-09-09T07:18:52;97205.75;;;13.69;100.00
49947;BME280;35839;48.662;13.300;2022-09-09T07:21:20;97207.22;;;13.72;100.00
49947;BME280;35839;48.662;13.300;2022-09-09T07:23:46;97211.59;;;13.79;100.00
49947;BME280;35839;48.662;13.300;2022-09-09T07:26:14;97212.47;;;13.72;100.00
49947;BME280;35839;48.662;13.300;2022-09-09T07:28:40;97211.59;;;13.79;100.00
49947;BME280;35839;48.662;13.300;2022-09-09T07:31:07;97209.38;;;13.91;100.00
49947;BME280;35839;48.662;13.300;2022-09-09T07:33:38;97205.94;;;13.90;100.00
49947;BME280;35839;48.662;13.300;2022-09-09T07:36:27;97211.38;;;13.89;100.00
49947;BME280;35839;48.662;13.300;2022-09-09T07:38:57;97215.81;;;13.88;100.00
49947;BME280;35839;48.662;13.300;2022-09-09T07:41:29;97218.72;;;13.94;100.00
49947;BME280;35839;48.662;13.300;2022-09-09T07:43:55;97221.56;;;14.15;100.00
49947;BME280;35839;48.662;13.300;2022-09-09T07:46:23;97228.47;;;14.16;100.00
49947;BME280;35839;48.662;13.300;2022-09-09T07:48:51;97235.25;;;14.33;100.00
49947;BME280;35839;48.662;13.300;2022-09-09T07:51:20;97239.53;;;14.49;100.00
49947;BME280;35839;48.662;13.300;2022-09-09T07:53:48;97239.50;;;14.58;100.00
49947;BME280;35839;48.662;13.300;2022-09-09T07:56:17;97249.78;;;14.67;100.00
49947;BME280;35839;48.662;13.300;2022-09-09T07:58:45;97259.53;;;14.82;100.00
49947;BME280;35839;48.662;13.300;2022-09-09T08:01:20;97255.19;;;14.89;100.00
49947;BME280;35839;48.662;13.300;2022-09-09T08:03:51;97240.84;;;15.06;100.00
49947;BME280;35839;48.662;13.300;2022-09-09T08:06:17;97230.91;;;15.23;100.00
49947;BME280;35839;48.662;13.300;2022-09-09T08:08:43;97227.28;;;15.09;100.00
49947;BME280;35839;48.662;13.300;2022-09-09T08:11:13;97229.19;;;15.15;100.00
49947;BME280;35839;48.662;13.300;2022-09-09T08:13:40;97235.81;;;15.26;100.00
49947;BME280;35839;48.662;13.300;2022-09-09T08:16:10;97242.19;;;15.17;100.00
49947;BME280;35839;48.662;13.300;2022-09-09T08:18:36;97242.75;;;15.27;100.00
49947;BME280;35839;48.662;13.300;2022-09-09T08:21:12;97237.25;;;15.44;100.00
49947;BME280;35839;48.662;13.300;2022-09-09T08:23:42;97232.41;;;15.47;100.00
49947;BME280;35839;48.662;13.300;2022-09-09T08:26:24;97226.13;;;15.63;100.00
49947;BME280;35839;48.662;13.300;2022-09-09T08:28:51;97229.22;;;15.52;100.00
49947;BME280;35839;48.662;13.300;2022-09-09T08:31:30;97226.69;;;15.73;100.00
49947;BME280;35839;48.662;13.300;2022-09-09T08:33:57;97227.75;;;15.79;100.00
49947;BME280;35839;48.662;13.300;2022-09-09T08:36:25;97233.53;;;15.89;100.00
49947;BME280;35839;48.662;13.300;2022-09-09T08:38:57;97242.28;;;15.90;100.00
49947;BME280;35839;48.662;13.300;2022-09-09T08:46:54;97256.47;;;16.25;100.00
49947;BME280;35839;48.662;13.300;2022-09-09T08:51:54;97257.94;;;15.91;100.00
49947;BME280;35839;48.662;13.300;2022-09-09T08:54:21;97262.97;;;15.86;100.00
49947;BME280;35839;48.662;13.300;2022-09-09T08:56:47;97275.19;;;16.09;100.00
49947;BME280;35839;48.662;13.300;2022-09-09T08:59:17;97270.66;;;16.02;100.00
49947;BME280;35839;48.662;13.300;2022-09-09T09:02:21;97272.34;;;16.10;100.00
49947;BME280;35839;48.662;13.300;2022-09-09T09:12:53;97267.84;;;16.75;100.00
49947;BME280;35839;48.662;13.300;2022-09-09T09:15:28;97271.78;;;16.79;100.00
49947;BME280;35839;48.662;13.300;2022-09-09T09:17:55;97278.94;;;16.85;100.00
49947;BME280;35839;48.662;13.300;2022-09-09T09:20:32;97276.59;;;16.97;100.00
49947;BME280;35839;48.662;13.300;2022-09-09T09:23:03;97275.41;;;16.78;100.00
49947;BME280;35839;48.662;13.300;2022-09-09T09:25:35;97277.06;;;16.79;100.00
49947;BME280;35839;48.662;13.300;2022-09-09T09:28:12;97280.81;;;16.92;100.00
49947;BME280;35839;48.662;13.300;2022-09-09T09:30:45;97284.09;;;16.72;100.00
49947;BME280;35839;48.662;13.300;2022-09-09T09:36:09;97281.72;;;16.56;100.00
49947;BME280;35839;48.662;13.300;2022-09-09T09:38:36;97276.69;;;16.61;100.00
49947;BME280;35839;48.662;13.300;2022-09-09T09:41:02;97269.31;;;16.56;100.00
49947;BME280;35839;48.662;13.300;2022-09-09T09:43:30;97280.59;;;16.65;100.00
49947;BME280;35839;48.662;13.300;2022-09-09T09:45:55;97276.50;;;16.62;100.00
49947;BME280;35839;48.662;13.300;2022-09-09T09:48:23;97287.31;;;16.68;100.00
49947;BME280;35839;48.662;13.300;2022-09-09T09:50:54;97298.03;;;16.81;100.00
49947;BME280;35839;48.662;13.300;2022-09-09T09:56:01;97318.22;;;16.67;100.00
49947;BME280;35839;48.662;13.300;2022-09-09T09:58:31;97321.63;;;16.82;100.00
49947;BME280;35839;48.662;13.300;2022-09-09T10:00:59;97314.31;;;16.84;100.00
49947;BME280;35839;48.662;13.300;2022-09-09T10:03:29;97304.47;;;17.00;100.00
49947;BME280;35839;48.662;13.300;2022-09-09T10:05:54;97291.22;;;16.93;100.00
49947;BME280;35839;48.662;13.300;2022-09-09T10:08:23;97298.22;;;16.79;100.00
49947;BME280;35839;48.662;13.300;2022-09-09T10:19:36;97310.16;;;16.75;100.00
49947;BME280;35839;48.662;13.300;2022-09-09T10:27:58;97319.47;;;16.71;100.00
49947;BME280;35839;48.662;13.300;2022-09-09T10:30:55;97315.97;;;16.85;100.00
49947;BME280;35839;48.662;13.300;2022-09-09T10:36:22;97311.16;;;16.74;100.00
49947;BME280;35839;48.662;13.300;2022-09-09T10:39:15;97314.00;;;16.51;100.00
49947;BME280;35839;48.662;13.300;2022-09-09T10:52:11;97313.69;;;16.39;100.00
49947;BME280;35839;48.662;13.300;2022-09-09T10:57:29;97297.22;;;16.37;100.00
49947;BME280;35839;48.662;13.300;2022-09-09T11:00:01;97306.09;;;16.30;100.00
49947;BME280;35839;48.662;13.300;2022-09-09T11:02:31;97320.38;;;16.35;100.00
49947;BME280;35839;48.662;13.300;2022-09-09T11:05:18;97323.72;;;16.44;100.00
49947;BME280;35839;48.662;13.300;2022-09-09T11:07:49;97313.88;;;16.38;100.00
49947;BME280;35839;48.662;13.300;2022-09-09T11:12:55;97304.19;;;16.45;100.00
49947;BME280;35839;48.662;13.300;2022-09-09T11:15:36;97307.28;;;16.49;100.00
49947;BME280;35839;48.662;13.300;2022-09-09T11:18:07;97299.59;;;16.54;100.00
49947;BME280;35839;48.662;13.300;2022-09-09T11:20:36;97299.22;;;16.35;100.00
49947;BME280;35839;48.662;13.300;2022-09-09T11:23:13;97299.34;;;16.49;100.00
49947;BME280;35839;48.662;13.300;2022-09-09T11:26:02;97294.44;;;16.46;100.00
49947;BME280;35839;48.662;13.300;2022-09-09T11:39:37;97297.66;;;15.83;100.00
49947;BME280;35839;48.662;13.300;2022-09-09T11:44:38;97292.22;;;15.55;100.00
49947;BME280;35839;48.662;13.300;2022-09-09T11:47:03;97285.09;;;15.70;100.00
49947;BME280;35839;48.662;13.300;2022-09-09T11:49:40;97293.53;;;15.66;100.00
49947;BME280;35839;48.662;13.300;2022-09-09T11:52:23;97302.22;;;15.74;100.00
49947;BME280;35839;48.662;13.300;2022-09-09T11:54:50;97300.84;;;15.78;100.00
49947;BME280;35839;48.662;13.300;2022-09-09T11:57:24;97310.09;;;15.89;100.00
49947;BME280;35839;48.662;13.300;2022-09-09T11:59:51;97311.38;;;15.93;100.00
49947;BME280;35839;48.662;13.300;2022-09-09T12:02:30;97313.03;;;15.94;100.00
49947;BME280;35839;48.662;13.300;2022-09-09T12:05:06;97306.56;;;15.82;100.00
49947;BME280;35839;48.662;13.300;2022-09-09T12:07:51;97309.31;;;15.74;100.00
49947;BME280;35839;48.662;13.300;2022-09-09T12:12:47;97324.16;;;15.75;100.00
49947;BME280;35839;48.662;13.300;2022-09-09T12:17:45;97311.84;;;15.82;100.00
49947;BME280;35839;48.662;13.300;2022-09-09T12:28:52;97319.94;;;15.66;100.00
49947;BME280;35839;48.662;13.300;2022-09-09T12:31:35;97310.84;;;15.68;100.00
49947;BME280;35839;48.662;13.300;2022-09-09T12:34:14;97305.66;;;15.45;100.00
49947;BME280;35839;48.662;13.300;2022-09-09T12:36:44;97309.59;;;15.34;100.00
49947;BME280;35839;48.662;13.300;2022-09-09T12:39:26;97302.13;;;15.38;100.00
49947;BME280;35839;48.662;13.300;2022-09-09T12:41:53;97297.78;;;15.15;100.00
49947;BME280;35839;48.662;13.300;2022-09-09T12:44:23;97302.88;;;15.32;100.00
49947;BME280;35839;48.662;13.300;2022-09-09T12:46:49;97293.28;;;15.31;100.00
49947;BME280;35839;48.662;13.300;2022-09-09T12:51:52;97294.69;;;15.27;100.00
49947;BME280;35839;48.662;13.300;2022-09-09T12:54:19;97297.59;;;15.32;100.00
49947;BME280;35839;48.662;13.300;2022-09-09T12:56:48;97298.22;;;15.34;100.00
49947;BME280;35839;48.662;13.300;2022-09-09T12:59:24;97289.13;;;15.36;100.00
49947;BME280;35839;48.662;13.300;2022-09-09T13:01:59;97288.66;;;15.33;100.00
49947;BME280;35839;48.662;13.300;2022-09-09T13:04:24;97283.38;;;15.33;100.00
49947;BME280;35839;48.662;13.300;2022-09-09T13:06:50;97280.56;;;15.34;100.00
49947;BME280;35839;48.662;13.300;2022-09-09T13:09:18;97276.22;;;15.27;100.00
49947;BME280;35839;48.662;13.300;2022-09-09T13:11:48;97286.38;;;15.45;100.00
49947;BME280;35839;48.662;13.300;2022-09-09T13:14:24;97284.03;;;15.35;100.00
49947;BME280;35839;48.662;13.300;2022-09-09T13:17:01;97268.84;;;15.37;100.00
49947;BME280;35839;48.662;13.300;2022-09-09T13:19:32;97260.47;;;15.48;100.00
49947;BME280;35839;48.662;13.300;2022-09-09T13:21:59;97254.50;;;15.61;100.00
49947;BME280;35839;48.662;13.300;2022-09-09T13:24:31;97259.19;;;15.44;100.00
49947;BME280;35839;48.662;13.300;2022-09-09T13:27:05;97250.53;;;15.50;100.00
49947;BME280;35839;48.662;13.300;2022-09-09T13:29:52;97243.38;;;15.29;100.00
49947;BME280;35839;48.662;13.300;2022-09-09T13:32:23;97236.00;;;15.39;100.00
49947;BME280;35839;48.662;13.300;2022-09-09T13:34:56;97232.81;;;15.44;100.00
49947;BME280;35839;48.662;13.300;2022-09-09T13:37:33;97234.41;;;15.45;100.00
49947;BME280;35839;48.662;13.300;2022-09-09T13:40:00;97228.25;;;15.38;100.00
49947;BME280;35839;48.662;13.300;2022-09-09T13:42:29;97226.88;;;15.42;100.00
49947;BME280;35839;48.662;13.300;2022-09-09T13:44:57;97223.19;;;15.36;100.00
49947;BME280;35839;48.662;13.300;2022-09-09T13:47:36;97224.63;;;15.39;100.00
49947;BME280;35839;48.662;13.300;2022-09-09T13:50:27;97220.25;;;15.46;100.00
49947;BME280;35839;48.662;13.300;2022-09-09T13:52:55;97214.50;;;15.43;100.00
49947;BME280;35839;48.662;13.300;2022-09-09T13:55:25;97204.94;;;15.56;100.00
49947;BME280;35839;48.662;13.300;2022-09-09T13:57:58;97208.69;;;15.47;100.00
49947;BME280;35839;48.662;13.300;2022-09-09T14:00:26;97211.44;;;15.75;100.00
49947;BME280;35839;48.662;13.300;2022-09-09T14:02:53;97214.69;;;15.92;100.00
49947;BME280;35839;48.662;13.300;2022-09-09T14:05:20;97209.91;;;16.02;100.00
49947;BME280;35839;48.662;13.300;2022-09-09T14:07:47;97208.78;;;16.12;100.00
49947;BME280;35839;48.662;13.300;2022-09-09T14:10:13;97215.16;;;16.46;100.00
49947;BME280;35839;48.662;13.300;2022-09-09T14:12:39;97214.91;;;16.62;100.00
49947;BME280;35839;48.662;13.300;2022-09-09T14:15:06;97214.84;;;16.83;100.00
49947;BME280;35839;48.662;13.300;2022-09-09T14:17:32;97212.63;;;16.87;100.00
49947;BME280;35839;48.662;13.300;2022-09-09T14:19:58;97214.97;;;16.75;100.00
49947;BME280;35839;48.662;13.300;2022-09-09T14:22:24;97211.78;;;16.80;100.00
49947;BME280;35839;48.662;13.300;2022-09-09T14:24:50;97214.59;;;16.78;100.00
49947;BME280;35839;48.662;13.300;2022-09-09T14:27:19;97211.69;;;16.73;100.00
49947;BME280;35839;48.662;13.300;2022-09-09T14:29:44;97208.00;;;16.68;100.00
49947;BME280;35839;48.662;13.300;2022-09-09T14:32:11;97213.22;;;16.82;100.00
49947;BME280;35839;48.662;13.300;2022-09-09T14:34:36;97214.28;;;16.88;100.00
49947;BME280;35839;48.662;13.300;2022-09-09T14:37:02;97213.25;;;17.24;100.00
49947;BME280;35839;48.662;13.300;2022-09-09T14:39:27;97218.22;;;17.47;100.00
49947;BME280;35839;48.662;13.300;2022-09-09T14:41:53;97217.22;;;18.09;100.00
49947;BME280;35839;48.662;13.300;2022-09-09T14:44:18;97208.19;;;19.62;100.00
49947;BME280;35839;48.662;13.300;2022-09-09T14:46:44;97212.91;;;19.60;100.00
49947;BME280;35839;48.662;13.300;2022-09-09T14:49:09;97212.69;;;19.10;100.00
49947;BME280;35839;48.662;13.300;2022-09-09T14:51:38;97209.44;;;19.01;100.00
49947;BME280;35839;48.662;13.300;2022-09-09T14:54:03;97219.06;;;19.61;100.00
49947;BME280;35839;48.662;13.300;2022-09-09T14:56:31;97222.38;;;19.49;100.00
49947;BME280;35839;48.662;13.300;2022-09-09T14:58:58;97225.72;;;19.25;100.00
49947;BME280;35839;48.662;13.300;2022-09-09T15:01:25;97226.94;;;19.81;100.00
49947;BME280;35839;48.662;13.300;2022-09-09T15:03:56;97233.22;;;20.25;100.00
49947;BME280;35839;48.662;13.300;2022-09-09T15:06:23;97224.41;;;21.92;100.00
49947;BME280;35839;48.662;13.300;2022-09-09T15:08:51;97224.66;;;22.02;100.00
49947;BME280;35839;48.662;13.300;2022-09-09T15:11:18;97225.59;;;22.38;100.00
49947;BME280;35839;48.662;13.300;2022-09-09T15:13:44;97231.81;;;20.97;100.00
49947;BME280;35839;48.662;13.300;2022-09-09T15:16:13;97228.75;;;20.18;100.00
49947;BME280;35839;48.662;13.300;2022-09-09T15:18:39;97220.25;;;19.71;100.00
49947;BME280;35839;48.662;13.300;2022-09-09T15:21:15;97213.84;;;19.86;100.00
49947;BME280;35839;48.662;13.300;2022-09-09T15:23:41;97216.34;;;19.74;100.00
49947;BME280;35839;48.662;13.300;2022-09-09T15:26:08;97212.28;;;19.06;100.00
49947;BME280;35839;48.662;13.300;2022-09-09T15:28:36;97199.91;;;18.53;100.00
49947;BME280;35839;48.662;13.300;2022-09-09T15:31:07;97194.78;;;18.32;100.00
49947;BME280;35839;48.662;13.300;2022-09-09T15:33:34;97199.06;;;18.00;100.00
49947;BME280;35839;48.662;13.300;2022-09-09T15:36:12;97198.88;;;18.15;100.00
49947;BME280;35839;48.662;13.300;2022-09-09T15:38:38;97198.25;;;18.06;100.00
49947;BME280;35839;48.662;13.300;2022-09-09T15:41:03;97194.75;;;17.92;100.00
49947;BME280;35839;48.662;13.300;2022-09-09T15:43:31;97187.03;;;17.97;100.00
49947;BME280;35839;48.662;13.300;2022-09-09T15:46:05;97184.22;;;18.19;100.00
49947;BME280;35839;48.662;13.300;2022-09-09T15:48:33;97182.00;;;19.27;100.00
49947;BME280;35839;48.662;13.300;2022-09-09T15:51:03;97189.78;;;19.22;100.00
49947;BME280;35839;48.662;13.300;2022-09-09T15:53:29;97189.50;;;18.72;100.00
49947;BME280;35839;48.662;13.300;2022-09-09T15:55:55;97187.03;;;18.70;100.00
49947;BME280;35839;48.662;13.300;2022-09-09T15:58:21;97177.03;;;18.72;100.00
49947;BME280;35839;48.662;13.300;2022-09-09T16:00:46;97184.59;;;18.82;100.00
49947;BME280;35839;48.662;13.300;2022-09-09T16:03:11;97190.88;;;17.95;100.00
49947;BME280;35839;48.662;13.300;2022-09-09T16:05:37;97187.41;;;17.81;100.00
49947;BME280;35839;48.662;13.300;2022-09-09T16:08:03;97193.94;;;17.85;100.00
49947;BME280;35839;48.662;13.300;2022-09-09T16:10:29;97193.97;;;18.05;100.00
49947;BME280;35839;48.662;13.300;2022-09-09T16:12:56;97195.69;;;17.58;100.00
49947;BME280;35839;48.662;13.300;2022-09-09T16:15:21;97193.13;;;17.30;100.00
49947;BME280;35839;48.662;13.300;2022-09-09T16:17:48;97176.16;;;17.17;100.00
49947;BME280;35839;48.662;13.300;2022-09-09T16:20:14;97184.50;;;17.14;100.00
49947;BME280;35839;48.662;13.300;2022-09-09T16:22:39;97194.34;;;16.92;100.00
49947;BME280;35839;48.662;13.300;2022-09-09T16:25:05;97180.16;;;17.00;100.00
49947;BME280;35839;48.662;13.300;2022-09-09T16:27:31;97182.97;;;16.92;100.00
49947;BME280;35839;48.662;13.300;2022-09-09T16:29:56;97185.38;;;17.89;100.00
49947;BME280;35839;48.662;13.300;2022-09-09T16:32:22;97192.97;;;18.59;100.00
49947;BME280;35839;48.662;13.300;2022-09-09T16:34:47;97188.59;;;17.78;100.00
49947;BME280;35839;48.662;13.300;2022-09-09T16:37:13;97185.34;;;17.76;100.00
49947;BME280;35839;48.662;13.300;2022-09-09T16:39:38;97185.00;;;18.59;100.00
49947;BME280;35839;48.662;13.300;2022-09-09T16:42:03;97186.25;;;18.30;100.00
49947;BME280;35839;48.662;13.300;2022-09-09T16:44:30;97185.53;;;17.75;100.00
49947;BME280;35839;48.662;13.300;2022-09-09T16:46:55;97193.63;;;17.53;100.00
49947;BME280;35839;48.662;13.300;2022-09-09T16:49:21;97198.72;;;17.61;100.00
49947;BME280;35839;48.662;13.300;2022-09-09T16:51:48;97199.53;;;17.62;100.00
49947;BME280;35839;48.662;13.300;2022-09-09T16:54:16;97205.06;;;17.60;100.00
49947;BME280;35839;48.662;13.300;2022-09-09T16:56:43;97207.44;;;17.42;100.00
49947;BME280;35839;48.662;13.300;2022-09-09T16:59:15;97215.75;;;17.39;100.00
49947;BME280;35839;48.662;13.300;2022-09-09T17:01:42;97213.69;;;17.27;100.00
49947;BME280;35839;48.662;13.300;2022-09-09T17:04:11;97217.25;;;17.13;100.00
49947;BME280;35839;48.662;13.300;2022-09-09T17:06:39;97210.19;;;16.85;100.00
49947;BME280;35839;48.662;13.300;2022-09-09T17:09:07;97220.78;;;16.64;100.00
49947;BME280;35839;48.662;13.300;2022-09-09T17:11:34;97221.13;;;16.54;100.00
49947;BME280;35839;48.662;13.300;2022-09-09T17:14:01;97222.56;;;16.57;100.00
49947;BME280;35839;48.662;13.300;2022-09-09T17:16:29;97217.78;;;16.46;100.00
49947;BME280;35839;48.662;13.300;2022-09-09T17:18:56;97222.69;;;16.20;100.00
49947;BME280;35839;48.662;13.300;2022-09-09T17:21:24;97213.81;;;16.07;100.00
49947;BME280;35839;48.662;13.300;2022-09-09T17:23:51;97212.78;;;16.08;100.00
49947;BME280;35839;48.662;13.300;2022-09-09T17:26:18;97206.31;;;16.10;100.00
49947;BME280;35839;48.662;13.300;2022-09-09T17:28:45;97207.25;;;16.02;100.00
49947;BME280;35839;48.662;13.300;2022-09-09T17:31:12;97201.97;;;15.81;100.00
49947;BME280;35839;48.662;13.300;2022-09-09T17:33:40;97200.72;;;15.77;100.00
49947;BME280;35839;48.662;13.300;2022-09-09T17:36:13;97195.06;;;15.80;100.00
49947;BME280;35839;48.662;13.300;2022-09-09T17:38:39;97194.38;;;15.71;100.00
49947;BME280;35839;48.662;13.300;2022-09-09T17:41:10;97202.81;;;15.67;100.00
49947;BME280;35839;48.662;13.300;2022-09-09T17:43:37;97198.03;;;15.55;100.00
49947;BME280;35839;48.662;13.300;2022-09-09T17:46:21;97208.13;;;15.52;100.00
49947;BME280;35839;48.662;13.300;2022-09-09T17:48:51;97200.47;;;15.72;100.00
49947;BME280;35839;48.662;13.300;2022-09-09T17:51:21;97206.94;;;15.54;100.00
49947;BME280;35839;48.662;13.300;2022-09-09T17:53:53;97208.03;;;15.45;100.00
49947;BME280;35839;48.662;13.300;2022-09-09T17:56:24;97209.38;;;15.56;100.00
49947;BME280;35839;48.662;13.300;2022-09-09T17:58:50;97207.06;;;15.46;100.00
49947;BME280;35839;48.662;13.300;2022-09-09T18:01:21;97208.78;;;15.39;100.00
49947;BME280;35839;48.662;13.300;2022-09-09T18:03:48;97210.44;;;15.25;100.00
49947;BME280;35839;48.662;13.300;2022-09-09T18:06:17;97209.09;;;15.29;100.00
49947;BME280;35839;48.662;13.300;2022-09-09T18:08:47;97210.72;;;15.30;100.00
49947;BME280;35839;48.662;13.300;2022-09-09T18:11:12;97218.19;;;15.27;100.00
49947;BME280;35839;48.662;13.300;2022-09-09T18:13:38;97213.25;;;15.38;100.00
49947;BME280;35839;48.662;13.300;2022-09-09T18:16:06;97216.16;;;15.44;100.00
49947;BME280;35839;48.662;13.300;2022-09-09T18:18:32;97220.28;;;15.68;100.00
49947;BME280;35839;48.662;13.300;2022-09-09T18:20:59;97222.31;;;15.51;100.00
49947;BME280;35839;48.662;13.300;2022-09-09T18:23:26;97219.34;;;15.39;100.00
49947;BME280;35839;48.662;13.300;2022-09-09T18:25:52;97220.72;;;15.35;100.00
49947;BME280;35839;48.662;13.300;2022-09-09T18:28:17;97226.88;;;15.42;100.00
49947;BME280;35839;48.662;13.300;2022-09-09T18:30:44;97224.16;;;15.35;100.00
49947;BME280;35839;48.662;13.300;2022-09-09T18:33:10;97229.72;;;15.26;100.00
49947;BME280;35839;48.662;13.300;2022-09-09T18:35:35;97237.09;;;15.30;100.00
49947;BME280;35839;48.662;13.300;2022-09-09T18:38:02;97232.63;;;15.31;100.00
49947;BME280;35839;48.662;13.300;2022-09-09T18:40:30;97237.81;;;15.24;100.00
49947;BME280;35839;48.662;13.300;2022-09-09T18:42:55;97249.19;;;15.25;100.00
49947;BME280;35839;48.662;13.300;2022-09-09T18:45:21;97244.19;;;15.15;100.00
49947;BME280;35839;48.662;13.300;2022-09-09T18:47:47;97244.13;;;15.08;100.00
49947;BME280;35839;48.662;13.300;2022-09-09T18:50:13;97244.56;;;15.12;100.00
49947;BME280;35839;48.662;13.300;2022-09-09T18:52:39;97258.38;;;15.14;100.00
49947;BME280;35839;48.662;13.300;2022-09-09T18:55:04;97255.91;;;15.12;100.00
49947;BME280;35839;48.662;13.300;2022-09-09T18:57:30;97260.63;;;15.17;100.00
49947;BME280;35839;48.662;13.300;2022-09-09T18:59:55;97266.19;;;15.07;100.00
49947;BME280;35839;48.662;13.300;2022-09-09T19:02:21;97271.63;;;15.06;100.00
49947;BME280;35839;48.662;13.300;2022-09-09T19:04:46;97266.72;;;15.03;100.00
49947;BME280;35839;48.662;13.300;2022-09-09T19:07:15;97270.81;;;15.05;100.00
49947;BME280;35839;48.662;13.300;2022-09-09T19:09:41;97271.56;;;15.14;100.00
49947;BME280;35839;48.662;13.300;2022-09-09T19:12:06;97279.56;;;15.50;100.00
49947;BME280;35839;48.662;13.300;2022-09-09T19:14:32;97283.00;;;15.36;100.00
49947;BME280;35839;48.662;13.300;2022-09-09T19:16:57;97285.22;;;15.17;100.00
49947;BME280;35839;48.662;13.300;2022-09-09T19:19:26;97294.50;;;15.13;100.00
49947;BME280;35839;48.662;13.300;2022-09-09T19:21:52;97288.19;;;15.14;100.00